Time,TemperatureF,DewpointF,PressureIn,WindDirection,WindDirectionDegrees,WindSpeedMPH,WindSpeedGustMPH,Humidity,HourlyPrecipIn,Conditions,Clouds,dailyrainin,SoftwareType,DateUTC
2013-03-21 00:00:00,39.6,24.7,29.85,NE,35,1.0,2.0,55,0.00,,,0.00,Wunderground v.1.15,2013-03-21 06:00:00,
2013-03-21 00:30:00,40.6,26.5,29.82,NE,35,0.0,0.0,57,0.00,,,0.00,Wunderground v.1.15,2013-03-21 06:30:00,
2013-03-21 01:00:00,41.6,26.6,29.81,NE,35,0.0,1.0,55,0.00,,,0.00,Wunderground v.1.15,2013-03-21 07:00:00,
2013-03-21 01:30:00,41.9,26.9,29.78,NE,35,0.0,0.0,55,0.00,,,0.00,Wunderground v.1.15,2013-03-21 07:30:00,
2013-03-21 02:00:00,39.6,25.2,29.80,NE,35,0.0,0.0,56,0.00,,,0.00,Wunderground v.1.15,2013-03-21 08:00:00,
2013-03-21 02:30:00,40.8,25.4,29.78,NE,35,0.0,0.0,54,0.00,,,0.00,Wunderground v.1.15,2013-03-21 08:30:00,
2013-03-21 03:00:00,40.3,25.0,29.77,NE,35,0.0,0.0,54,0.00,,,0.00,Wunderground v.1.15,2013-03-21 09:00:00,
2013-03-21 03:30:00,40.8,25.9,29.78,NE,35,0.0,0.0,55,0.00,,,0.00,Wunderground v.1.15,2013-03-21 09:30:00,
2013-03-21 04:30:00,38.6,24.7,29.80,NE,35,0.0,0.0,57,0.00,,,0.00,Wunderground v.1.15,2013-03-21 10:30:00,
2013-03-21 05:00:00,40.2,24.4,29.78,NE,35,0.0,0.0,53,0.00,,,0.00,Wunderground v.1.15,2013-03-21 11:00:00,
2013-03-21 05:30:00,41.1,23.4,29.77,SW,229,3.0,3.0,49,0.00,,,0.00,Wunderground v.1.15,2013-03-21 11:30:00,
2013-03-21 06:00:00,41.3,23.6,29.76,SSW,206,2.0,7.0,49,0.00,,,0.00,Wunderground v.1.15,2013-03-21 12:00:00,
2013-03-21 06:30:00,41.6,23.8,29.75,SSE,167,0.0,0.0,49,0.00,,,0.00,Wunderground v.1.15,2013-03-21 12:30:00,
2013-03-21 07:00:00,41.1,25.3,29.74,NE,56,0.0,0.0,53,0.00,,,0.00,Wunderground v.1.15,2013-03-21 13:00:00,
2013-03-21 07:30:00,40.8,23.1,29.75,ESE,102,0.0,2.0,49,0.00,,,0.00,Wunderground v.1.15,2013-03-21 13:30:00,
2013-03-21 08:00:00,40.5,22.8,29.76,ESE,123,1.0,1.0,49,0.00,,,0.00,Wunderground v.1.15,2013-03-21 14:00:00,
2013-03-21 08:30:00,39.6,22.5,29.75,NNE,30,2.0,2.0,50,0.00,,,0.00,Wunderground v.1.15,2013-03-21 14:30:00,
2013-03-21 09:00:00,41.8,22.5,29.74,SSW,202,1.0,1.0,46,0.00,,,0.00,Wunderground v.1.15,2013-03-21 15:00:00,
2013-03-21 09:30:00,42.9,23.0,29.75,SW,216,4.0,5.0,45,0.00,,,0.00,Wunderground v.1.15,2013-03-21 15:30:00,
2013-03-21 10:00:00,44.2,23.1,29.73,South,189,4.0,4.0,43,0.00,,,0.00,Wunderground v.1.15,2013-03-21 16:00:00,
2013-03-21 10:30:00,45.8,23.4,29.74,NNE,28,2.0,2.0,41,0.00,,,0.00,Wunderground v.1.15,2013-03-21 16:30:00,
2013-03-21 11:00:00,46.2,23.2,29.71,SE,144,5.0,5.0,40,0.00,,,0.00,Wunderground v.1.15,2013-03-21 17:00:00,
2013-03-21 11:30:00,47.7,16.9,29.70,SSE,148,7.0,7.0,29,0.00,,,0.00,Wunderground v.1.15,2013-03-21 17:30:00,
2013-03-21 12:00:00,47.1,15.6,29.71,South,175,12.0,12.0,28,0.00,,,0.00,Wunderground v.1.15,2013-03-21 18:00:00,
2013-03-21 12:30:00,47.7,16.1,29.67,SSW,193,12.0,12.0,28,0.00,,,0.00,Wunderground v.1.15,2013-03-21 18:30:00,
2013-03-21 13:00:00,47.1,18.7,29.66,SSW,193,11.0,14.0,32,0.00,,,0.00,Wunderground v.1.15,2013-03-21 19:00:00,
2013-03-21 13:31:00,48.0,16.4,29.70,ESE,121,6.0,6.0,28,0.00,,,0.00,Wunderground v.1.15,2013-03-21 19:31:00,
2013-03-21 14:00:00,51.0,10.1,29.66,NE,54,6.0,7.0,19,0.00,,,0.00,Wunderground v.1.15,2013-03-21 20:00:00,
2013-03-21 14:30:00,51.6,10.6,29.64,North,11,7.0,7.0,19,0.00,,,0.00,Wunderground v.1.15,2013-03-21 20:30:00,
2013-03-21 15:00:00,51.4,10.4,29.66,East,95,5.0,10.0,19,0.00,,,0.00,Wunderground v.1.15,2013-03-21 21:00:00,
2013-03-21 15:30:00,50.1,12.7,29.65,SW,222,8.0,8.0,22,0.00,,,0.00,Wunderground v.1.15,2013-03-21 21:30:00,
2013-03-21 16:00:00,51.0,13.4,29.65,SE,136,5.0,5.0,22,0.00,,,0.00,Wunderground v.1.15,2013-03-21 22:00:00,
2013-03-21 16:30:00,50.2,12.8,29.66,NE,38,4.0,14.0,22,0.00,,,0.00,Wunderground v.1.15,2013-03-21 22:30:00,
2013-03-21 17:00:00,49.6,7.8,29.67,North,0,4.0,4.0,18,0.00,,,0.00,Wunderground v.1.15,2013-03-21 23:00:00,
2013-03-21 17:30:00,49.5,10.0,29.68,SSE,160,3.0,5.0,20,0.00,,,0.00,Wunderground v.1.15,2013-03-21 23:30:00,
2013-03-21 18:01:00,48.2,10.0,29.70,SSW,195,4.0,4.0,21,0.00,,,0.00,Wunderground v.1.15,2013-03-22 00:01:00,
2013-03-21 18:30:00,44.3,8.8,29.74,NE,45,3.0,7.0,23,0.00,,,0.00,Wunderground v.1.15,2013-03-22 00:30:00,
2013-03-21 19:00:00,42.9,6.6,29.76,East,85,3.0,6.0,22,0.00,,,0.00,Wunderground v.1.15,2013-03-22 01:00:00,
2013-03-21 19:30:00,41.2,4.1,29.79,NE,35,3.0,3.0,21,0.00,,,0.00,Wunderground v.1.15,2013-03-22 01:30:00,
2013-03-21 20:00:00,39.9,3.1,29.81,North,357,0.0,0.0,21,0.00,,,0.00,Wunderground v.1.15,2013-03-22 02:00:00,
2013-03-21 20:31:00,38.5,-1.4,29.81,NNE,27,3.0,3.0,18,0.00,,,0.00,Wunderground v.1.15,2013-03-22 02:31:00,
2013-03-21 21:00:00,37.6,-2.2,29.82,NNE,25,2.0,2.0,18,0.00,,,0.00,Wunderground v.1.15,2013-03-22 03:00:00,
2013-03-21 21:30:00,36.5,-0.9,29.80,NNE,25,2.0,2.0,20,0.00,,,0.00,Wunderground v.1.15,2013-03-22 03:30:00,
2013-03-21 22:30:00,37.8,0.2,29.80,NNE,24,3.0,3.0,20,0.00,,,0.00,Wunderground v.1.15,2013-03-22 04:30:00,
2013-03-21 23:00:00,37.6,0.1,29.80,NE,37,1.0,3.0,20,0.00,,,0.00,Wunderground v.1.15,2013-03-22 05:00:00,
2013-03-21 23:31:00,36.9,-1.6,29.80,NE,51,3.0,3.0,19,0.00,,,0.00,Wunderground v.1.15,2013-03-22 05:31:00,